sensor_id;sensor_type;location;lat;lon;timestamp;P1;durP1;ratioP1;P2;durP2;ratioP2
62092;SDS011;59819;52.976;6.846;2022-07-29T02:53:20;5.28;;;3.50;;
62092;SDS011;59819;52.976;6.846;2022-07-29T02:55:57;3.50;;;2.75;;
62092;SDS011;59819;52.976;6.846;2022-07-29T02:58:25;4.90;;;3.10;;
62092;SDS011;59819;52.976;6.846;2022-07-29T03:00:53;4.97;;;3.08;;
62092;SDS011;59819;52.976;6.846;2022-07-29T03:03:21;4.78;;;3.13;;
62092;SDS011;59819;52.976;6.846;2022-07-29T03:05:47;4.65;;;3.40;;
62092;SDS011;59819;52.976;6.846;2022-07-29T03:08:13;4.90;;;3.10;;
62092;SDS011;59819;52.976;6.846;2022-07-29T03:10:42;4.38;;;3.17;;
62092;SDS011;59819;52.976;6.846;2022-07-29T03:13:09;4.13;;;3.13;;
62092;SDS011;59819;52.976;6.846;2022-07-29T03:15:35;5.68;;;3.15;;
62092;SDS011;59819;52.976;6.846;2022-07-29T03:18:02;3.50;;;2.80;;
62092;SDS011;59819;52.976;6.846;2022-07-29T03:20:29;5.90;;;3.42;;
62092;SDS011;59819;52.976;6.846;2022-07-29T03:22:55;5.72;;;3.05;;
62092;SDS011;59819;52.976;6.846;2022-07-29T03:25:21;5.35;;;3.03;;
62092;SDS011;59819;52.976;6.846;2022-07-29T03:27:47;5.22;;;3.20;;
62092;SDS011;59819;52.976;6.846;2022-07-29T03:30:14;5.03;;;3.42;;
62092;SDS011;59819;52.976;6.846;2022-07-29T03:32:41;5.18;;;2.92;;
62092;SDS011;59819;52.976;6.846;2022-07-29T03:35:07;4.88;;;3.40;;
62092;SDS011;59819;52.976;6.846;2022-07-29T03:37:34;4.43;;;3.47;;
62092;SDS011;59819;52.976;6.846;2022-07-29T03:40:02;4.45;;;3.10;;
62092;SDS011;59819;52.976;6.846;2022-07-29T03:42:30;5.65;;;3.22;;
62092;SDS011;59819;52.976;6.846;2022-07-29T03:44:57;4.15;;;3.40;;
62092;SDS011;59819;52.976;6.846;2022-07-29T03:47:24;4.95;;;3.25;;
62092;SDS011;59819;52.976;6.846;2022-07-29T03:49:51;4.65;;;3.45;;
62092;SDS011;59819;52.976;6.846;2022-07-29T03:52:18;4.90;;;3.58;;
62092;SDS011;59819;52.976;6.846;2022-07-29T03:54:44;3.83;;;3.17;;
62092;SDS011;59819;52.976;6.846;2022-07-29T03:57:11;4.75;;;3.33;;
62092;SDS011;59819;52.976;6.846;2022-07-29T03:59:37;5.85;;;3.63;;
62092;SDS011;59819;52.976;6.846;2022-07-29T04:02:04;5.15;;;3.30;;
62092;SDS011;59819;52.976;6.846;2022-07-29T04:04:34;3.70;;;3.10;;
62092;SDS011;59819;52.976;6.846;2022-07-29T04:07:01;4.00;;;3.30;;
62092;SDS011;59819;52.976;6.846;2022-07-29T04:09:27;5.68;;;3.63;;
62092;SDS011;59819;52.976;6.846;2022-07-29T04:11:53;6.20;;;3.17;;
62092;SDS011;59819;52.976;6.846;2022-07-29T04:14:19;4.45;;;3.00;;
62092;SDS011;59819;52.976;6.846;2022-07-29T04:16:45;5.85;;;3.22;;
62092;SDS011;59819;52.976;6.846;2022-07-29T04:19:11;4.75;;;3.28;;
62092;SDS011;59819;52.976;6.846;2022-07-29T04:21:38;5.60;;;3.28;;
62092;SDS011;59819;52.976;6.846;2022-07-29T04:24:04;6.35;;;3.50;;
62092;SDS011;59819;52.976;6.846;2022-07-29T04:26:30;5.18;;;3.40;;
62092;SDS011;59819;52.976;6.846;2022-07-29T04:28:56;5.13;;;3.47;;
62092;SDS011;59819;52.976;6.846;2022-07-29T04:31:22;6.22;;;3.35;;
62092;SDS011;59819;52.976;6.846;2022-07-29T04:33:48;5.15;;;3.38;;
62092;SDS011;59819;52.976;6.846;2022-07-29T04:36:14;7.63;;;3.38;;
62092;SDS011;59819;52.976;6.846;2022-07-29T04:38:40;4.50;;;3.25;;
62092;SDS011;59819;52.976;6.846;2022-07-29T04:41:06;7.90;;;3.40;;
62092;SDS011;59819;52.976;6.846;2022-07-29T04:43:36;4.38;;;3.53;;
62092;SDS011;59819;52.976;6.846;2022-07-29T04:46:06;5.18;;;3.75;;
62092;SDS011;59819;52.976;6.846;2022-07-29T04:48:32;4.65;;;3.22;;
62092;SDS011;59819;52.976;6.846;2022-07-29T04:50:58;4.32;;;3.30;;
62092;SDS011;59819;52.976;6.846;2022-07-29T04:53:24;3.60;;;3.20;;
62092;SDS011;59819;52.976;6.846;2022-07-29T04:55:50;7.47;;;3.42;;
62092;SDS011;59819;52.976;6.846;2022-07-29T04:58:16;4.32;;;3.42;;
62092;SDS011;59819;52.976;6.846;2022-07-29T05:00:42;6.60;;;3.50;;
62092;SDS011;59819;52.976;6.846;2022-07-29T05:03:08;5.93;;;3.47;;
62092;SDS011;59819;52.976;6.846;2022-07-29T05:05:34;5.22;;;3.22;;
62092;SDS011;59819;52.976;6.846;2022-07-29T05:08:01;4.60;;;3.15;;
62092;SDS011;59819;52.976;6.846;2022-07-29T05:10:27;5.25;;;3.60;;
62092;SDS011;59819;52.976;6.846;2022-07-29T05:12:53;5.35;;;3.40;;
62092;SDS011;59819;52.976;6.846;2022-07-29T05:15:19;6.72;;;3.20;;
62092;SDS011;59819;52.976;6.846;2022-07-29T05:17:45;4.85;;;3.47;;
62092;SDS011;59819;52.976;6.846;2022-07-29T05:20:11;7.43;;;3.83;;
62092;SDS011;59819;52.976;6.846;2022-07-29T05:22:37;6.70;;;3.38;;
62092;SDS011;59819;52.976;6.846;2022-07-29T05:25:04;6.43;;;3.25;;
62092;SDS011;59819;52.976;6.846;2022-07-29T05:27:30;6.43;;;3.13;;
62092;SDS011;59819;52.976;6.846;2022-07-29T05:29:56;4.20;;;3.10;;
62092;SDS011;59819;52.976;6.846;2022-07-29T05:32:22;5.00;;;3.00;;
62092;SDS011;59819;52.976;6.846;2022-07-29T05:34:48;5.40;;;3.15;;
62092;SDS011;59819;52.976;6.846;2022-07-29T05:37:14;4.07;;;3.17;;
62092;SDS011;59819;52.976;6.846;2022-07-29T05:39:40;6.70;;;3.30;;
62092;SDS011;59819;52.976;6.846;2022-07-29T05:42:09;3.85;;;2.90;;
62092;SDS011;59819;52.976;6.846;2022-07-29T05:44:36;5.03;;;2.80;;
62092;SDS011;59819;52.976;6.846;2022-07-29T05:47:02;4.10;;;3.08;;
62092;SDS011;59819;52.976;6.846;2022-07-29T05:49:28;5.00;;;3.22;;
62092;SDS011;59819;52.976;6.846;2022-07-29T05:51:54;5.65;;;3.17;;
62092;SDS011;59819;52.976;6.846;2022-07-29T05:54:20;4.85;;;3.40;;
62092;SDS011;59819;52.976;6.846;2022-07-29T05:56:46;5.70;;;3.00;;
62092;SDS011;59819;52.976;6.846;2022-07-29T05:59:13;5.55;;;3.15;;
62092;SDS011;59819;52.976;6.846;2022-07-29T06:01:39;6.28;;;3.20;;
62092;SDS011;59819;52.976;6.846;2022-07-29T06:04:08;6.28;;;3.50;;
62092;SDS011;59819;52.976;6.846;2022-07-29T06:06:34;7.00;;;3.70;;
62092;SDS011;59819;52.976;6.846;2022-07-29T06:09:00;10.05;;;3.42;;
62092;SDS011;59819;52.976;6.846;2022-07-29T06:11:27;6.15;;;3.25;;
62092;SDS011;59819;52.976;6.846;2022-07-29T06:13:53;4.70;;;3.05;;
62092;SDS011;59819;52.976;6.846;2022-07-29T06:16:19;4.55;;;3.00;;
62092;SDS011;59819;52.976;6.846;2022-07-29T06:18:45;4.35;;;3.30;;
62092;SDS011;59819;52.976;6.846;2022-07-29T06:21:11;3.75;;;2.80;;
62092;SDS011;59819;52.976;6.846;2022-07-29T06:23:37;5.20;;;2.85;;
62092;SDS011;59819;52.976;6.846;2022-07-29T06:26:03;5.15;;;2.97;;
62092;SDS011;59819;52.976;6.846;2022-07-29T06:28:30;4.82;;;3.00;;
62092;SDS011;59819;52.976;6.846;2022-07-29T06:30:56;6.13;;;3.00;;
62092;SDS011;59819;52.976;6.846;2022-07-29T06:33:22;5.30;;;3.33;;
62092;SDS011;59819;52.976;6.846;2022-07-29T06:35:48;5.25;;;3.03;;
62092;SDS011;59819;52.976;6.846;2022-07-29T06:38:14;6.85;;;3.28;;
62092;SDS011;59819;52.976;6.846;2022-07-29T06:40:44;7.30;;;2.97;;
62092;SDS011;59819;52.976;6.846;2022-07-29T06:45:56;5.03;;;3.00;;
62092;SDS011;59819;52.976;6.846;2022-07-29T06:48:22;4.85;;;3.00;;
62092;SDS011;59819;52.976;6.846;2022-07-29T06:50:48;6.43;;;3.25;;
62092;SDS011;59819;52.976;6.846;2022-07-29T06:53:15;5.63;;;3.47;;
62092;SDS011;59819;52.976;6.846;2022-07-29T06:55:41;8.65;;;3.50;;
62092;SDS011;59819;52.976;6.846;2022-07-29T06:58:07;4.45;;;3.20;;
62092;SDS011;59819;52.976;6.846;2022-07-29T07:00:34;5.22;;;3.53;;
62092;SDS011;59819;52.976;6.846;2022-07-29T07:03:00;5.13;;;3.20;;
62092;SDS011;59819;52.976;6.846;2022-07-29T07:05:26;4.85;;;3.10;;
62092;SDS011;59819;52.976;6.846;2022-07-29T07:07:52;5.35;;;3.00;;
62092;SDS011;59819;52.976;6.846;2022-07-29T07:10:18;5.13;;;3.20;;
62092;SDS011;59819;52.976;6.846;2022-07-29T07:12:44;5.35;;;3.00;;
62092;SDS011;59819;52.976;6.846;2022-07-29T07:15:10;7.22;;;3.25;;
62092;SDS011;59819;52.976;6.846;2022-07-29T07:17:36;6.38;;;3.30;;
62092;SDS011;59819;52.976;6.846;2022-07-29T07:20:03;5.35;;;2.80;;
62092;SDS011;59819;52.976;6.846;2022-07-29T07:22:29;4.82;;;3.17;;
62092;SDS011;59819;52.976;6.846;2022-07-29T07:24:55;7.10;;;3.25;;
62092;SDS011;59819;52.976;6.846;2022-07-29T07:27:22;6.15;;;3.30;;
62092;SDS011;59819;52.976;6.846;2022-07-29T07:29:48;6.18;;;3.00;;
62092;SDS011;59819;52.976;6.846;2022-07-29T07:32:14;4.82;;;2.88;;
62092;SDS011;59819;52.976;6.846;2022-07-29T07:34:41;6.95;;;3.10;;
62092;SDS011;59819;52.976;6.846;2022-07-29T07:37:08;4.72;;;3.13;;
62092;SDS011;59819;52.976;6.846;2022-07-29T07:39:34;4.68;;;2.90;;
62092;SDS011;59819;52.976;6.846;2022-07-29T07:42:00;3.92;;;2.88;;
62092;SDS011;59819;52.976;6.846;2022-07-29T07:44:26;4.75;;;2.80;;
62092;SDS011;59819;52.976;6.846;2022-07-29T07:46:52;5.53;;;2.90;;
62092;SDS011;59819;52.976;6.846;2022-07-29T07:49:18;4.72;;;2.75;;
62092;SDS011;59819;52.976;6.846;2022-07-29T07:51:44;4.07;;;2.78;;
62092;SDS011;59819;52.976;6.846;2022-07-29T07:54:10;4.07;;;3.10;;
62092;SDS011;59819;52.976;6.846;2022-07-29T07:56:36;4.43;;;3.10;;
62092;SDS011;59819;52.976;6.846;2022-07-29T07:59:02;4.43;;;3.10;;
62092;SDS011;59819;52.976;6.846;2022-07-29T08:01:28;5.00;;;2.97;;
62092;SDS011;59819;52.976;6.846;2022-07-29T08:03:54;5.68;;;3.00;;
62092;SDS011;59819;52.976;6.846;2022-07-29T08:06:20;5.07;;;3.08;;
62092;SDS011;59819;52.976;6.846;2022-07-29T08:08:46;6.55;;;2.70;;
62092;SDS011;59819;52.976;6.846;2022-07-29T08:11:12;6.63;;;2.95;;
62092;SDS011;59819;52.976;6.846;2022-07-29T08:13:39;3.72;;;3.30;;
62092;SDS011;59819;52.976;6.846;2022-07-29T08:16:05;4.25;;;3.20;;
62092;SDS011;59819;52.976;6.846;2022-07-29T08:18:38;4.97;;;2.72;;
62092;SDS011;59819;52.976;6.846;2022-07-29T08:21:05;7.63;;;3.10;;
62092;SDS011;59819;52.976;6.846;2022-07-29T08:23:31;4.05;;;3.00;;
62092;SDS011;59819;52.976;6.846;2022-07-29T08:26:06;3.85;;;2.95;;
62092;SDS011;59819;52.976;6.846;2022-07-29T08:28:36;4.60;;;3.20;;
62092;SDS011;59819;52.976;6.846;2022-07-29T08:31:02;4.13;;;2.95;;
62092;SDS011;59819;52.976;6.846;2022-07-29T08:33:28;6.20;;;3.15;;
62092;SDS011;59819;52.976;6.846;2022-07-29T08:35:54;6.20;;;3.22;;
62092;SDS011;59819;52.976;6.846;2022-07-29T08:38:20;6.13;;;3.10;;
62092;SDS011;59819;52.976;6.846;2022-07-29T08:40:46;6.97;;;2.92;;
62092;SDS011;59819;52.976;6.846;2022-07-29T08:43:12;5.45;;;3.20;;
62092;SDS011;59819;52.976;6.846;2022-07-29T08:45:45;7.13;;;3.65;;
62092;SDS011;59819;52.976;6.846;2022-07-29T08:48:12;7.47;;;3.50;;
62092;SDS011;59819;52.976;6.846;2022-07-29T08:50:39;6.13;;;3.60;;
62092;SDS011;59819;52.976;6.846;2022-07-29T08:53:06;7.13;;;3.22;;
62092;SDS011;59819;52.976;6.846;2022-07-29T08:55:33;5.43;;;3.05;;
62092;SDS011;59819;52.976;6.846;2022-07-29T08:57:59;5.00;;;3.42;;
62092;SDS011;59819;52.976;6.846;2022-07-29T09:00:26;7.05;;;3.45;;
62092;SDS011;59819;52.976;6.846;2022-07-29T09:02:56;5.57;;;3.38;;
62092;SDS011;59819;52.976;6.846;2022-07-29T09:05:22;6.53;;;3.40;;
62092;SDS011;59819;52.976;6.846;2022-07-29T09:07:50;5.20;;;3.40;;
62092;SDS011;59819;52.976;6.846;2022-07-29T09:10:16;5.93;;;2.97;;
62092;SDS011;59819;52.976;6.846;2022-07-29T09:12:42;5.15;;;3.13;;
62092;SDS011;59819;52.976;6.846;2022-07-29T09:15:08;6.50;;;3.50;;
62092;SDS011;59819;52.976;6.846;2022-07-29T09:17:41;5.13;;;3.33;;
62092;SDS011;59819;52.976;6.846;2022-07-29T09:20:08;5.40;;;3.80;;
62092;SDS011;59819;52.976;6.846;2022-07-29T09:22:34;7.18;;;3.40;;
62092;SDS011;59819;52.976;6.846;2022-07-29T09:25:00;5.60;;;3.65;;
62092;SDS011;59819;52.976;6.846;2022-07-29T09:27:26;6.40;;;3.60;;
62092;SDS011;59819;52.976;6.846;2022-07-29T09:29:57;5.68;;;3.20;;
62092;SDS011;59819;52.976;6.846;2022-07-29T09:32:23;7.22;;;3.90;;
62092;SDS011;59819;52.976;6.846;2022-07-29T09:34:49;5.95;;;3.45;;
62092;SDS011;59819;52.976;6.846;2022-07-29T09:37:25;8.35;;;3.85;;
62092;SDS011;59819;52.976;6.846;2022-07-29T09:39:51;6.88;;;3.50;;
62092;SDS011;59819;52.976;6.846;2022-07-29T09:42:27;9.13;;;3.65;;
62092;SDS011;59819;52.976;6.846;2022-07-29T09:44:53;7.57;;;3.50;;
62092;SDS011;59819;52.976;6.846;2022-07-29T09:47:20;8.85;;;3.50;;
62092;SDS011;59819;52.976;6.846;2022-07-29T09:49:58;5.13;;;3.47;;
62092;SDS011;59819;52.976;6.846;2022-07-29T09:52:27;7.90;;;4.05;;
62092;SDS011;59819;52.976;6.846;2022-07-29T09:55:03;5.72;;;3.47;;
62092;SDS011;59819;52.976;6.846;2022-07-29T09:57:29;6.03;;;3.40;;
62092;SDS011;59819;52.976;6.846;2022-07-29T10:00:00;4.88;;;3.20;;
62092;SDS011;59819;52.976;6.846;2022-07-29T10:02:30;6.85;;;3.10;;
62092;SDS011;59819;52.976;6.846;2022-07-29T10:04:56;7.65;;;3.58;;
62092;SDS011;59819;52.976;6.846;2022-07-29T10:07:22;6.38;;;3.80;;
62092;SDS011;59819;52.976;6.846;2022-07-29T10:09:53;5.13;;;3.88;;
62092;SDS011;59819;52.976;6.846;2022-07-29T10:12:19;9.27;;;3.80;;
62092;SDS011;59819;52.976;6.846;2022-07-29T10:14:45;9.48;;;3.70;;
62092;SDS011;59819;52.976;6.846;2022-07-29T10:17:12;8.38;;;4.28;;
62092;SDS011;59819;52.976;6.846;2022-07-29T10:19:38;5.35;;;3.30;;
62092;SDS011;59819;52.976;6.846;2022-07-29T10:22:08;7.55;;;3.38;;
62092;SDS011;59819;52.976;6.846;2022-07-29T10:24:35;7.57;;;3.70;;
62092;SDS011;59819;52.976;6.846;2022-07-29T10:27:03;7.20;;;3.90;;
62092;SDS011;59819;52.976;6.846;2022-07-29T10:29:29;6.68;;;3.72;;
62092;SDS011;59819;52.976;6.846;2022-07-29T10:40:04;6.60;;;3.83;;
62092;SDS011;59819;52.976;6.846;2022-07-29T10:42:54;5.65;;;3.65;;
62092;SDS011;59819;52.976;6.846;2022-07-29T10:45:21;5.97;;;3.88;;
62092;SDS011;59819;52.976;6.846;2022-07-29T10:47:47;4.63;;;3.83;;
62092;SDS011;59819;52.976;6.846;2022-07-29T10:50:13;4.60;;;3.50;;
62092;SDS011;59819;52.976;6.846;2022-07-29T10:58:20;5.28;;;3.65;;
62092;SDS011;59819;52.976;6.846;2022-07-29T11:00:49;7.57;;;3.90;;
62092;SDS011;59819;52.976;6.846;2022-07-29T11:08:27;5.97;;;3.80;;
62092;SDS011;59819;52.976;6.846;2022-07-29T11:16:11;8.35;;;3.75;;
62092;SDS011;59819;52.976;6.846;2022-07-29T11:21:34;6.50;;;3.75;;
62092;SDS011;59819;52.976;6.846;2022-07-29T11:27:10;6.57;;;3.78;;
62092;SDS011;59819;52.976;6.846;2022-07-29T11:29:40;7.95;;;4.00;;
62092;SDS011;59819;52.976;6.846;2022-07-29T11:32:14;5.82;;;3.85;;
62092;SDS011;59819;52.976;6.846;2022-07-29T11:34:41;7.47;;;4.00;;
62092;SDS011;59819;52.976;6.846;2022-07-29T11:39:44;8.10;;;4.13;;
62092;SDS011;59819;52.976;6.846;2022-07-29T11:47:49;6.75;;;4.07;;
62092;SDS011;59819;52.976;6.846;2022-07-29T11:50:35;6.03;;;4.20;;
62092;SDS011;59819;52.976;6.846;2022-07-29T11:53:11;8.02;;;4.00;;
62092;SDS011;59819;52.976;6.846;2022-07-29T11:55:38;8.30;;;3.80;;
62092;SDS011;59819;52.976;6.846;2022-07-29T11:58:04;6.45;;;3.88;;
62092;SDS011;59819;52.976;6.846;2022-07-29T12:02:57;8.20;;;4.53;;
62092;SDS011;59819;52.976;6.846;2022-07-29T12:05:34;7.72;;;4.40;;
62092;SDS011;59819;52.976;6.846;2022-07-29T12:10:32;6.97;;;4.00;;
62092;SDS011;59819;52.976;6.846;2022-07-29T12:12:58;7.10;;;4.55;;
62092;SDS011;59819;52.976;6.846;2022-07-29T12:15:24;6.70;;;4.15;;
62092;SDS011;59819;52.976;6.846;2022-07-29T12:17:51;7.43;;;4.65;;
62092;SDS011;59819;52.976;6.846;2022-07-29T12:20:27;8.10;;;4.30;;
62092;SDS011;59819;52.976;6.846;2022-07-29T12:22:53;8.20;;;4.50;;
62092;SDS011;59819;52.976;6.846;2022-07-29T12:25:20;7.70;;;4.82;;
62092;SDS011;59819;52.976;6.846;2022-07-29T12:27:47;7.40;;;4.50;;
62092;SDS011;59819;52.976;6.846;2022-07-29T12:30:14;6.75;;;4.75;;
62092;SDS011;59819;52.976;6.846;2022-07-29T12:32:44;7.93;;;4.22;;
62092;SDS011;59819;52.976;6.846;2022-07-29T12:35:11;8.77;;;4.40;;
62092;SDS011;59819;52.976;6.846;2022-07-29T12:37:38;6.82;;;4.15;;
62092;SDS011;59819;52.976;6.846;2022-07-29T12:40:05;6.47;;;4.68;;
62092;SDS011;59819;52.976;6.846;2022-07-29T12:42:32;5.38;;;4.05;;
62092;SDS011;59819;52.976;6.846;2022-07-29T12:44:59;6.63;;;4.22;;
62092;SDS011;59819;52.976;6.846;2022-07-29T12:47:25;8.25;;;4.18;;
62092;SDS011;59819;52.976;6.846;2022-07-29T12:50:06;4.97;;;3.92;;
62092;SDS011;59819;52.976;6.846;2022-07-29T12:52:33;4.63;;;3.40;;
62092;SDS011;59819;52.976;6.846;2022-07-29T12:54:59;6.95;;;4.00;;
62092;SDS011;59819;52.976;6.846;2022-07-29T12:57:26;6.20;;;3.75;;
62092;SDS011;59819;52.976;6.846;2022-07-29T13:00:08;8.55;;;4.15;;
62092;SDS011;59819;52.976;6.846;2022-07-29T13:02:39;6.93;;;3.85;;
62092;SDS011;59819;52.976;6.846;2022-07-29T13:05:05;6.13;;;3.50;;
62092;SDS011;59819;52.976;6.846;2022-07-29T13:07:33;5.47;;;3.22;;
62092;SDS011;59819;52.976;6.846;2022-07-29T13:10:18;9.57;;;3.80;;
62092;SDS011;59819;52.976;6.846;2022-07-29T13:15:29;5.65;;;3.72;;
62092;SDS011;59819;52.976;6.846;2022-07-29T13:17:55;8.07;;;4.13;;
62092;SDS011;59819;52.976;6.846;2022-07-29T13:20:23;4.85;;;3.70;;
62092;SDS011;59819;52.976;6.846;2022-07-29T13:22:50;10.25;;;4.22;;
62092;SDS011;59819;52.976;6.846;2022-07-29T13:25:23;6.60;;;3.70;;
62092;SDS011;59819;52.976;6.846;2022-07-29T13:27:49;7.65;;;3.95;;
62092;SDS011;59819;52.976;6.846;2022-07-29T13:30:15;5.95;;;3.90;;
62092;SDS011;59819;52.976;6.846;2022-07-29T13:32:41;7.22;;;3.40;;
62092;SDS011;59819;52.976;6.846;2022-07-29T13:35:07;5.10;;;3.63;;
62092;SDS011;59819;52.976;6.846;2022-07-29T13:37:34;7.35;;;3.63;;
62092;SDS011;59819;52.976;6.846;2022-07-29T13:40:03;5.68;;;3.53;;
62092;SDS011;59819;52.976;6.846;2022-07-29T13:42:30;8.18;;;3.35;;
62092;SDS011;59819;52.976;6.846;2022-07-29T13:44:57;8.68;;;3.75;;
62092;SDS011;59819;52.976;6.846;2022-07-29T13:47:23;6.10;;;4.00;;
62092;SDS011;59819;52.976;6.846;2022-07-29T13:49:49;6.57;;;3.38;;
62092;SDS011;59819;52.976;6.846;2022-07-29T13:52:15;10.73;;;3.45;;
62092;SDS011;59819;52.976;6.846;2022-07-29T13:54:44;6.03;;;3.38;;
62092;SDS011;59819;52.976;6.846;2022-07-29T13:57:13;5.65;;;3.60;;
62092;SDS011;59819;52.976;6.846;2022-07-29T13:59:40;5.30;;;3.60;;
62092;SDS011;59819;52.976;6.846;2022-07-29T14:02:07;6.43;;;3.45;;
62092;SDS011;59819;52.976;6.846;2022-07-29T14:04:33;6.22;;;4.20;;
62092;SDS011;59819;52.976;6.846;2022-07-29T14:06:59;9.30;;;3.72;;
62092;SDS011;59819;52.976;6.846;2022-07-29T14:09:25;5.88;;;3.75;;
62092;SDS011;59819;52.976;6.846;2022-07-29T14:11:51;8.00;;;3.60;;
62092;SDS011;59819;52.976;6.846;2022-07-29T14:14:18;6.53;;;3.40;;
62092;SDS011;59819;52.976;6.846;2022-07-29T14:16:44;7.13;;;3.40;;
62092;SDS011;59819;52.976;6.846;2022-07-29T14:19:10;7.28;;;3.55;;
62092;SDS011;59819;52.976;6.846;2022-07-29T14:21:37;5.00;;;3.20;;
62092;SDS011;59819;52.976;6.846;2022-07-29T14:24:04;5.43;;;3.28;;
62092;SDS011;59819;52.976;6.846;2022-07-29T14:26:30;7.28;;;3.40;;
62092;SDS011;59819;52.976;6.846;2022-07-29T14:28:56;8.02;;;3.45;;
62092;SDS011;59819;52.976;6.846;2022-07-29T14:31:22;8.43;;;3.50;;
62092;SDS011;59819;52.976;6.846;2022-07-29T14:33:48;6.40;;;3.40;;
62092;SDS011;59819;52.976;6.846;2022-07-29T14:36:14;8.43;;;3.55;;
62092;SDS011;59819;52.976;6.846;2022-07-29T14:38:40;6.13;;;3.45;;
62092;SDS011;59819;52.976;6.846;2022-07-29T14:41:07;4.88;;;3.20;;
62092;SDS011;59819;52.976;6.846;2022-07-29T14:43:33;6.32;;;3.20;;
62092;SDS011;59819;52.976;6.846;2022-07-29T14:46:00;5.55;;;3.40;;
62092;SDS011;59819;52.976;6.846;2022-07-29T14:48:26;4.97;;;3.35;;
62092;SDS011;59819;52.976;6.846;2022-07-29T14:50:52;4.68;;;3.08;;
62092;SDS011;59819;52.976;6.846;2022-07-29T14:53:19;4.07;;;3.00;;
62092;SDS011;59819;52.976;6.846;2022-07-29T14:55:45;6.25;;;3.10;;
62092;SDS011;59819;52.976;6.846;2022-07-29T14:58:11;4.28;;;2.95;;
62092;SDS011;59819;52.976;6.846;2022-07-29T15:00:37;5.68;;;3.20;;
62092;SDS011;59819;52.976;6.846;2022-07-29T15:03:03;6.05;;;3.00;;
62092;SDS011;59819;52.976;6.846;2022-07-29T15:05:30;5.50;;;3.20;;
62092;SDS011;59819;52.976;6.846;2022-07-29T15:07:56;6.43;;;3.30;;
62092;SDS011;59819;52.976;6.846;2022-07-29T15:10:23;4.32;;;2.90;;
62092;SDS011;59819;52.976;6.846;2022-07-29T15:12:51;6.88;;;3.40;;
62092;SDS011;59819;52.976;6.846;2022-07-29T15:15:18;6.05;;;3.65;;
62092;SDS011;59819;52.976;6.846;2022-07-29T15:17:44;5.28;;;3.13;;
62092;SDS011;59819;52.976;6.846;2022-07-29T15:20:10;6.40;;;3.20;;
62092;SDS011;59819;52.976;6.846;2022-07-29T15:22:37;6.95;;;3.25;;
62092;SDS011;59819;52.976;6.846;2022-07-29T15:25:06;6.28;;;2.85;;
62092;SDS011;59819;52.976;6.846;2022-07-29T15:27:32;5.43;;;3.10;;
62092;SDS011;59819;52.976;6.846;2022-07-29T15:29:58;4.57;;;2.90;;
62092;SDS011;59819;52.976;6.846;2022-07-29T15:32:24;6.57;;;3.25;;
62092;SDS011;59819;52.976;6.846;2022-07-29T15:34:50;6.03;;;2.90;;
62092;SDS011;59819;52.976;6.846;2022-07-29T15:37:16;4.65;;;2.50;;
62092;SDS011;59819;52.976;6.846;2022-07-29T15:39:42;6.50;;;2.53;;
62092;SDS011;59819;52.976;6.846;2022-07-29T15:42:08;5.63;;;2.70;;
62092;SDS011;59819;52.976;6.846;2022-07-29T15:44:34;4.15;;;2.30;;
62092;SDS011;59819;52.976;6.846;2022-07-29T15:47:00;5.00;;;2.45;;
62092;SDS011;59819;52.976;6.846;2022-07-29T15:49:35;5.75;;;2.20;;
62092;SDS011;59819;52.976;6.846;2022-07-29T15:52:04;3.92;;;2.00;;
62092;SDS011;59819;52.976;6.846;2022-07-29T15:54:37;4.13;;;2.78;;
62092;SDS011;59819;52.976;6.846;2022-07-29T15:57:03;4.10;;;2.30;;
62092;SDS011;59819;52.976;6.846;2022-07-29T15:59:29;2.78;;;2.28;;
62092;SDS011;59819;52.976;6.846;2022-07-29T16:01:55;4.00;;;2.33;;
62092;SDS011;59819;52.976;6.846;2022-07-29T16:04:22;4.53;;;2.30;;
62092;SDS011;59819;52.976;6.846;2022-07-29T16:06:48;5.10;;;2.30;;
62092;SDS011;59819;52.976;6.846;2022-07-29T16:09:15;3.35;;;2.47;;
62092;SDS011;59819;52.976;6.846;2022-07-29T16:11:43;3.95;;;2.50;;
62092;SDS011;59819;52.976;6.846;2022-07-29T16:14:17;5.35;;;2.50;;
62092;SDS011;59819;52.976;6.846;2022-07-29T16:16:43;5.55;;;2.50;;
62092;SDS011;59819;52.976;6.846;2022-07-29T16:19:09;4.72;;;2.50;;
62092;SDS011;59819;52.976;6.846;2022-07-29T16:21:35;4.82;;;2.88;;
62092;SDS011;59819;52.976;6.846;2022-07-29T16:24:02;4.60;;;2.90;;
62092;SDS011;59819;52.976;6.846;2022-07-29T16:26:28;5.07;;;2.90;;
62092;SDS011;59819;52.976;6.846;2022-07-29T16:28:56;5.45;;;2.83;;
62092;SDS011;59819;52.976;6.846;2022-07-29T16:31:23;6.25;;;3.03;;
62092;SDS011;59819;52.976;6.846;2022-07-29T16:33:49;5.78;;;2.70;;
62092;SDS011;59819;52.976;6.846;2022-07-29T16:36:16;5.90;;;2.80;;
62092;SDS011;59819;52.976;6.846;2022-07-29T16:38:42;6.30;;;2.83;;
62092;SDS011;59819;52.976;6.846;2022-07-29T16:41:08;7.45;;;2.90;;
62092;SDS011;59819;52.976;6.846;2022-07-29T16:43:34;6.00;;;2.70;;
62092;SDS011;59819;52.976;6.846;2022-07-29T16:46:00;5.53;;;2.60;;
62092;SDS011;59819;52.976;6.846;2022-07-29T16:48:26;4.72;;;2.60;;
62092;SDS011;59819;52.976;6.846;2022-07-29T16:50:52;6.78;;;2.95;;
62092;SDS011;59819;52.976;6.846;2022-07-29T16:53:18;6.30;;;2.97;;
62092;SDS011;59819;52.976;6.846;2022-07-29T16:55:44;5.47;;;2.80;;
62092;SDS011;59819;52.976;6.846;2022-07-29T16:58:10;5.00;;;2.85;;
62092;SDS011;59819;52.976;6.846;2022-07-29T17:00:36;6.97;;;2.85;;
62092;SDS011;59819;52.976;6.846;2022-07-29T17:03:03;4.45;;;2.70;;
62092;SDS011;59819;52.976;6.846;2022-07-29T17:05:29;8.07;;;2.95;;
62092;SDS011;59819;52.976;6.846;2022-07-29T17:07:56;5.07;;;2.80;;
62092;SDS011;59819;52.976;6.846;2022-07-29T17:10:23;5.65;;;2.90;;
62092;SDS011;59819;52.976;6.846;2022-07-29T17:12:49;6.97;;;3.53;;
62092;SDS011;59819;52.976;6.846;2022-07-29T17:15:16;6.93;;;3.10;;
62092;SDS011;59819;52.976;6.846;2022-07-29T17:17:42;6.45;;;2.95;;
62092;SDS011;59819;52.976;6.846;2022-07-29T17:20:09;5.57;;;2.97;;
62092;SDS011;59819;52.976;6.846;2022-07-29T17:22:36;5.72;;;3.10;;
62092;SDS011;59819;52.976;6.846;2022-07-29T17:25:02;10.85;;;3.05;;
62092;SDS011;59819;52.976;6.846;2022-07-29T17:27:29;6.55;;;3.28;;
62092;SDS011;59819;52.976;6.846;2022-07-29T17:29:55;6.00;;;3.03;;
62092;SDS011;59819;52.976;6.846;2022-07-29T17:32:21;6.25;;;3.00;;
62092;SDS011;59819;52.976;6.846;2022-07-29T17:34:47;6.57;;;3.33;;
62092;SDS011;59819;52.976;6.846;2022-07-29T17:37:13;6.22;;;2.97;;
62092;SDS011;59819;52.976;6.846;2022-07-29T17:39:39;6.30;;;3.03;;
62092;SDS011;59819;52.976;6.846;2022-07-29T17:42:06;7.20;;;3.17;;
62092;SDS011;59819;52.976;6.846;2022-07-29T17:44:32;7.20;;;3.38;;
62092;SDS011;59819;52.976;6.846;2022-07-29T17:46:58;4.60;;;3.15;;
62092;SDS011;59819;52.976;6.846;2022-07-29T17:49:24;6.45;;;3.25;;
62092;SDS011;59819;52.976;6.846;2022-07-29T17:51:53;8.80;;;3.22;;
62092;SDS011;59819;52.976;6.846;2022-07-29T17:54:22;7.80;;;3.22;;
62092;SDS011;59819;52.976;6.846;2022-07-29T17:56:48;7.78;;;3.38;;
62092;SDS011;59819;52.976;6.846;2022-07-29T17:59:14;7.63;;;3.20;;
62092;SDS011;59819;52.976;6.846;2022-07-29T18:01:40;6.57;;;3.20;;
62092;SDS011;59819;52.976;6.846;2022-07-29T18:04:07;4.80;;;3.17;;
62092;SDS011;59819;52.976;6.846;2022-07-29T18:06:33;4.65;;;2.97;;
62092;SDS011;59819;52.976;6.846;2022-07-29T18:08:59;4.35;;;2.90;;
62092;SDS011;59819;52.976;6.846;2022-07-29T18:11:27;4.60;;;3.40;;
62092;SDS011;59819;52.976;6.846;2022-07-29T18:13:55;8.25;;;3.42;;
62092;SDS011;59819;52.976;6.846;2022-07-29T18:16:21;4.72;;;2.97;;
62092;SDS011;59819;52.976;6.846;2022-07-29T18:18:47;5.72;;;3.30;;
62092;SDS011;59819;52.976;6.846;2022-07-29T18:21:13;5.78;;;3.20;;
62092;SDS011;59819;52.976;6.846;2022-07-29T18:23:39;4.28;;;3.08;;
62092;SDS011;59819;52.976;6.846;2022-07-29T18:26:06;4.55;;;3.30;;
62092;SDS011;59819;52.976;6.846;2022-07-29T18:28:32;5.75;;;3.40;;